Terminal Aerodrome Forecast
Issued by NWS

Home | Current Version | Previous Version | Text Only | Print | Product List | Glossary On
Versions: 1 2 3 4 5 6 7 8 9 10 11 12
000
FTUS45 KABQ 201100
TAFAEG
TAF
KAEG 201126Z 2012/2112 VRB05KT P6SM SCT110 BKN150
     FM201800 29010KT P6SM SCT070 SCT150
     FM210100 31006KT P6SM FEW070=

USA.gov is the U.S. government's official web portal to all federal, state and local government web resources and services.